createdAt,value
2018-04-11T00:00:26.824Z,14.96
2018-04-11T00:01:27.395Z,14.94
2018-04-11T00:02:27.968Z,14.82
2018-04-11T00:03:28.542Z,14.81
2018-04-11T00:04:29.116Z,14.72
2018-04-11T00:05:29.690Z,14.65
2018-04-11T00:06:30.266Z,14.66
2018-04-11T00:07:30.840Z,14.54
2018-04-11T00:08:31.417Z,14.51
2018-04-11T00:09:31.990Z,14.54
2018-04-11T00:10:32.565Z,14.51
2018-04-11T00:11:33.138Z,14.41
2018-04-11T00:12:33.713Z,14.47
2018-04-11T00:13:34.285Z,14.55
2018-04-11T00:14:34.858Z,14.45
2018-04-11T00:15:35.432Z,14.48
2018-04-11T00:16:36.006Z,14.44
2018-04-11T00:17:36.581Z,14.45
2018-04-11T00:18:37.155Z,14.55
2018-04-11T00:19:37.740Z,14.51
2018-04-11T00:20:38.314Z,14.41
2018-04-11T00:21:38.887Z,14.53
2018-04-11T00:22:39.461Z,14.41
2018-04-11T00:23:40.036Z,14.48
2018-04-11T00:24:40.612Z,14.51
2018-04-11T00:25:41.186Z,14.53
2018-04-11T00:26:41.761Z,14.62
2018-04-11T00:27:42.333Z,14.51
2018-04-11T00:28:42.912Z,14.63
2018-04-11T00:29:43.491Z,14.78
2018-04-11T00:30:44.065Z,14.69
2018-04-11T00:31:44.640Z,14.44
2018-04-11T00:32:45.212Z,14.47
2018-04-11T00:33:45.785Z,14.45
2018-04-11T00:34:46.357Z,14.58
2018-04-11T00:35:46.930Z,14.25
2018-04-11T00:36:47.504Z,14.22
2018-04-11T00:37:48.078Z,14.08
2018-04-11T00:38:48.654Z,14.22
2018-04-11T00:39:49.227Z,14.14
2018-04-11T00:40:49.801Z,13.90
2018-04-11T00:41:50.373Z,13.74
2018-04-11T00:42:50.950Z,13.79
2018-04-11T00:43:51.533Z,13.75
2018-04-11T00:44:52.108Z,13.89
2018-04-11T00:45:52.683Z,14.07
2018-04-11T00:46:53.255Z,14.15
2018-04-11T00:47:53.830Z,14.18
2018-04-11T00:48:54.403Z,14.04
2018-04-11T00:49:54.976Z,14.05
2018-04-11T00:50:55.549Z,14.18
2018-04-11T00:51:56.124Z,14.28
2018-04-11T00:52:56.696Z,14.68
2018-04-11T00:53:57.271Z,14.32
2018-04-11T00:54:57.847Z,14.10
2018-04-11T00:55:58.420Z,13.77
2018-04-11T00:56:58.995Z,13.96
2018-04-11T00:57:59.572Z,13.92
2018-04-11T00:59:00.143Z,13.96
2018-04-11T01:00:00.714Z,13.92
2018-04-11T01:01:01.288Z,14.17
2018-04-11T01:02:01.860Z,14.40
2018-04-11T01:03:02.433Z,14.20
2018-04-11T01:04:03.008Z,14.41
2018-04-11T01:05:03.582Z,14.10
2018-04-11T01:06:04.156Z,14.05
2018-04-11T01:07:04.744Z,13.72
2018-04-11T01:08:05.316Z,13.72
2018-04-11T01:09:05.891Z,13.53
2018-04-11T01:10:06.507Z,13.49
2018-04-11T01:11:07.039Z,13.56
2018-04-11T01:12:07.612Z,13.67
2018-04-11T01:13:08.184Z,13.90
2018-04-11T01:14:08.758Z,13.79
2018-04-11T01:15:09.334Z,13.78
2018-04-11T01:16:09.904Z,13.93
2018-04-11T01:17:10.476Z,14.04
2018-04-11T01:18:11.049Z,13.97
2018-04-11T01:19:11.623Z,13.89
2018-04-11T01:20:12.198Z,13.74
2018-04-11T01:21:12.772Z,13.90
2018-04-11T01:22:13.393Z,13.99
2018-04-11T01:23:13.921Z,14.18
2018-04-11T01:24:14.495Z,14.50
2018-04-11T01:25:15.068Z,14.29
2018-04-11T01:26:15.642Z,14.04
2018-04-11T01:27:16.226Z,13.83
2018-04-11T01:28:16.799Z,13.67
2018-04-11T01:29:17.372Z,13.56
2018-04-11T01:30:17.945Z,13.62
2018-04-11T01:31:18.518Z,13.49
2018-04-11T01:32:19.091Z,13.70
2018-04-11T01:33:19.676Z,13.72
2018-04-11T01:34:20.262Z,13.77
2018-04-11T01:35:20.839Z,13.97
2018-04-11T01:36:21.411Z,13.86
2018-04-11T01:37:21.985Z,13.63
2018-04-11T01:38:22.558Z,13.65
2018-04-11T01:39:23.132Z,13.56
2018-04-11T01:40:23.704Z,13.63
2018-04-11T01:41:24.277Z,13.60
2018-04-11T01:42:24.849Z,13.54
2018-04-11T01:43:25.422Z,13.50
2018-04-11T01:44:25.996Z,13.42
2018-04-11T01:45:26.569Z,13.15
2018-04-11T01:46:27.145Z,13.19
2018-04-11T01:47:27.719Z,13.19
2018-04-11T01:48:28.293Z,13.52
2018-04-11T01:49:28.866Z,13.39
2018-04-11T01:50:29.440Z,13.75
2018-04-11T01:51:30.016Z,13.90
2018-04-11T01:52:30.585Z,13.75
2018-04-11T01:53:31.157Z,13.68
2018-04-11T01:54:31.732Z,14.11
2018-04-11T01:55:32.303Z,13.87
2018-04-11T01:56:32.888Z,13.57
2018-04-11T01:57:33.460Z,13.67
2018-04-11T01:58:34.033Z,13.77
2018-04-11T01:59:34.607Z,13.53
2018-04-11T02:00:35.179Z,13.08
2018-04-11T02:01:35.764Z,13.03
2018-04-11T02:02:36.342Z,13.04
2018-04-11T02:03:36.912Z,12.95
2018-04-11T02:04:37.485Z,12.93
2018-04-11T02:05:38.057Z,12.94
2018-04-11T02:06:38.631Z,13.04
2018-04-11T02:07:39.216Z,13.31
2018-04-11T02:08:39.789Z,13.04
2018-04-11T02:09:40.371Z,13.03
2018-04-11T02:10:40.936Z,13.35
2018-04-11T02:11:41.506Z,13.39
2018-04-11T02:12:42.079Z,13.27
2018-04-11T02:13:42.650Z,13.12
2018-04-11T02:14:43.224Z,13.09
2018-04-11T02:15:43.797Z,13.52
2018-04-11T02:16:44.381Z,13.53
2018-04-11T02:17:44.953Z,13.89
2018-04-11T02:18:45.532Z,13.67
2018-04-11T02:19:46.098Z,13.46
2018-04-11T02:20:46.669Z,13.22
2018-04-11T02:21:47.242Z,12.86
2018-04-11T02:22:47.815Z,12.82
2018-04-11T02:23:48.397Z,12.87
2018-04-11T02:24:48.970Z,13.09
2018-04-11T02:25:49.545Z,13.13
2018-04-11T02:26:50.119Z,12.98
2018-04-11T02:27:50.690Z,12.80
2018-04-11T02:28:51.263Z,12.68
2018-04-11T02:29:51.834Z,12.67
2018-04-11T02:30:52.408Z,12.86
2018-04-11T02:31:52.981Z,12.79
2018-04-11T02:32:53.555Z,13.01
2018-04-11T02:33:54.124Z,12.94
2018-04-11T02:34:54.696Z,12.78
2018-04-11T02:35:55.269Z,12.65
2018-04-11T02:36:55.843Z,12.68
2018-04-11T02:37:56.416Z,12.67
2018-04-11T02:38:56.991Z,12.95
2018-04-11T02:39:57.572Z,13.03
2018-04-11T02:40:58.145Z,13.41
2018-04-11T02:41:58.728Z,13.18
2018-04-11T02:42:59.312Z,13.01
2018-04-11T02:43:59.891Z,12.79
2018-04-11T02:45:00.461Z,12.58
2018-04-11T02:46:01.033Z,12.70
2018-04-11T02:47:01.616Z,12.97
2018-04-11T02:48:02.191Z,12.76
2018-04-11T02:49:02.776Z,12.50
2018-04-11T02:50:03.358Z,12.39
2018-04-11T02:51:03.931Z,12.24
2018-04-11T02:52:04.519Z,12.27
2018-04-11T02:53:05.101Z,12.27
2018-04-11T02:54:05.672Z,12.32
2018-04-11T02:55:06.251Z,12.45
2018-04-11T02:56:06.824Z,12.35
2018-04-11T02:57:07.391Z,12.17
2018-04-11T02:58:07.964Z,12.27
2018-04-11T02:59:08.538Z,12.36
2018-04-11T03:00:09.110Z,12.20
2018-04-11T03:01:09.684Z,12.25
2018-04-11T03:02:10.255Z,12.12
2018-04-11T03:03:10.827Z,12.57
2018-04-11T03:04:11.399Z,12.25
2018-04-11T03:05:11.973Z,12.37
2018-04-11T03:06:12.544Z,12.22
2018-04-11T03:07:13.116Z,12.42
2018-04-11T03:08:13.687Z,12.37
2018-04-11T03:09:14.259Z,12.07
2018-04-11T03:10:14.830Z,12.07
2018-04-11T03:11:15.414Z,11.95
2018-04-11T03:12:15.990Z,11.88
2018-04-11T03:13:16.558Z,12.07
2018-04-11T03:14:17.129Z,12.15
2018-04-11T03:15:17.701Z,12.04
2018-04-11T03:16:18.273Z,11.91
2018-04-11T03:17:18.845Z,11.91
2018-04-11T03:18:19.422Z,11.91
2018-04-11T03:19:19.993Z,11.88
2018-04-11T03:20:20.565Z,11.91
2018-04-11T03:21:21.138Z,12.15
2018-04-11T03:22:21.709Z,11.73
2018-04-11T03:23:22.280Z,11.73
2018-04-11T03:24:22.851Z,11.57
2018-04-11T03:25:23.424Z,11.73
2018-04-11T03:26:23.995Z,11.66
2018-04-11T03:27:24.566Z,11.68
2018-04-11T03:28:25.143Z,11.95
2018-04-11T03:29:25.709Z,11.66
2018-04-11T03:30:26.293Z,11.84
2018-04-11T03:31:26.880Z,11.94
2018-04-11T03:32:27.448Z,11.77
2018-04-11T03:33:28.089Z,11.50
2018-04-11T03:34:28.593Z,11.70
2018-04-11T03:35:29.166Z,11.52
2018-04-11T03:36:29.738Z,11.33
2018-04-11T03:37:30.311Z,11.41
2018-04-11T03:38:30.882Z,11.25
2018-04-11T03:39:31.456Z,11.22
2018-04-11T03:40:32.025Z,11.27
2018-04-11T03:41:32.597Z,11.27
2018-04-11T03:42:33.168Z,11.25
2018-04-11T03:43:33.752Z,11.23
2018-04-11T03:44:34.324Z,11.14
2018-04-11T03:45:34.895Z,11.29
2018-04-11T03:46:35.466Z,11.26
2018-04-11T03:47:36.041Z,11.17
2018-04-11T03:48:36.613Z,11.22
2018-04-11T03:49:37.191Z,11.17
2018-04-11T03:50:37.761Z,11.07
2018-04-11T03:51:38.334Z,11.18
2018-04-11T03:52:38.904Z,11.15
2018-04-11T03:53:39.476Z,11.04
2018-04-11T03:54:40.047Z,11.10
2018-04-11T03:55:40.617Z,11.18
2018-04-11T03:56:41.188Z,11.11
2018-04-11T03:57:41.760Z,11.19
2018-04-11T03:58:42.330Z,11.27
2018-04-11T03:59:42.901Z,10.94
2018-04-11T04:00:43.475Z,11.11
2018-04-11T04:01:44.088Z,11.08
2018-04-11T04:02:44.618Z,11.11
2018-04-11T04:03:45.199Z,11.12
2018-04-11T04:04:45.770Z,10.99
2018-04-11T04:05:46.341Z,10.97
2018-04-11T04:06:46.913Z,11.05
2018-04-11T04:07:47.510Z,10.94
2018-04-11T04:08:48.063Z,10.84
2018-04-11T04:09:48.631Z,10.87
2018-04-11T04:10:49.201Z,10.81
2018-04-11T04:11:49.774Z,10.76
2018-04-11T04:12:50.344Z,10.75
2018-04-11T04:13:50.917Z,10.81
2018-04-11T04:14:51.487Z,10.79
2018-04-11T04:15:52.058Z,10.84
2018-04-11T04:16:52.629Z,10.81
2018-04-11T04:17:53.200Z,11.17
2018-04-11T04:18:53.771Z,10.90
2018-04-11T04:19:54.342Z,10.87
2018-04-11T04:20:54.919Z,10.82
2018-04-11T04:21:55.487Z,10.86
2018-04-11T04:22:56.060Z,11.00
2018-04-11T04:23:56.631Z,11.12
2018-04-11T04:24:57.206Z,11.50
2018-04-11T04:25:57.774Z,11.29
2018-04-11T04:26:58.348Z,11.11
2018-04-11T04:27:58.914Z,11.11
2018-04-11T04:28:59.485Z,11.07
2018-04-11T04:30:00.056Z,10.87
2018-04-11T04:31:00.627Z,11.00
2018-04-11T04:32:01.198Z,11.11
2018-04-11T04:33:01.780Z,10.96
2018-04-11T04:34:02.349Z,10.89
2018-04-11T04:35:02.920Z,11.02
2018-04-11T04:36:03.493Z,11.10
2018-04-11T04:37:04.064Z,11.00
2018-04-11T04:38:04.636Z,11.12
2018-04-11T04:39:05.212Z,11.15
2018-04-11T04:40:05.778Z,11.26
2018-04-11T04:41:06.351Z,11.30
2018-04-11T04:42:06.924Z,11.43
2018-04-11T04:43:07.504Z,11.33
2018-04-11T04:44:08.074Z,11.32
2018-04-11T04:45:08.647Z,11.18
2018-04-11T04:46:09.220Z,11.27
2018-04-11T04:47:09.804Z,11.23
2018-04-11T04:48:10.375Z,11.14
2018-04-11T04:49:10.947Z,11.12
2018-04-11T04:50:11.519Z,10.94
2018-04-11T04:51:12.155Z,11.45
2018-04-11T04:52:12.664Z,11.41
2018-04-11T04:53:13.239Z,11.44
2018-04-11T04:54:13.811Z,10.97
2018-04-11T04:55:14.383Z,11.12
2018-04-11T04:56:14.967Z,10.99
2018-04-11T04:57:15.548Z,10.69
2018-04-11T04:58:16.122Z,10.75
2018-04-11T04:59:16.695Z,10.48
2018-04-11T05:00:17.267Z,10.61
2018-04-11T05:01:17.839Z,10.42
2018-04-11T05:02:18.412Z,10.60
2018-04-11T05:03:18.984Z,10.78
2018-04-11T05:04:19.561Z,10.63
2018-04-11T05:05:20.140Z,10.67
2018-04-11T05:06:20.713Z,10.71
2018-04-11T05:07:21.284Z,10.68
2018-04-11T05:08:21.856Z,10.76
2018-04-11T05:09:22.428Z,10.75
2018-04-11T05:10:23.001Z,11.19
2018-04-11T05:11:23.580Z,11.17
2018-04-11T05:12:24.149Z,11.44
2018-04-11T05:13:24.721Z,11.27
2018-04-11T05:14:25.293Z,10.78
2018-04-11T05:15:25.866Z,10.99
2018-04-11T05:16:26.449Z,10.84
2018-04-11T05:17:27.021Z,11.15
2018-04-11T05:18:27.591Z,10.97
2018-04-11T05:19:28.162Z,10.81
2018-04-11T05:20:28.746Z,10.72
2018-04-11T05:21:29.330Z,10.63
2018-04-11T05:22:29.905Z,10.69
2018-04-11T05:23:30.481Z,11.25
2018-04-11T05:24:31.051Z,10.84
2018-04-11T05:25:31.623Z,11.63
2018-04-11T05:26:32.205Z,11.52
2018-04-11T05:27:32.784Z,11.90
2018-04-11T05:28:33.365Z,11.77
2018-04-11T05:29:33.938Z,11.54
2018-04-11T05:30:34.511Z,11.65
2018-04-11T05:31:35.083Z,11.29
2018-04-11T05:32:35.668Z,11.32
2018-04-11T05:33:36.243Z,11.22
2018-04-11T05:34:36.815Z,11.07
2018-04-11T05:35:37.388Z,11.22
2018-04-11T05:36:37.961Z,11.12
2018-04-11T05:37:38.545Z,11.23
2018-04-11T05:38:39.118Z,10.97
2018-04-11T05:39:39.691Z,11.29
2018-04-11T05:40:40.265Z,11.12
2018-04-11T05:41:40.849Z,10.89
2018-04-11T05:42:41.421Z,10.90
2018-04-11T05:43:41.995Z,10.82
2018-04-11T05:44:42.571Z,10.64
2018-04-11T05:45:43.144Z,10.57
2018-04-11T05:46:43.719Z,10.68
2018-04-11T05:47:44.288Z,10.74
2018-04-11T05:48:44.861Z,10.64
2018-04-11T05:49:45.436Z,10.87
2018-04-11T05:50:46.009Z,10.87
2018-04-11T05:51:46.584Z,10.74
2018-04-11T05:52:47.168Z,10.59
2018-04-11T05:53:47.742Z,10.56
2018-04-11T05:54:48.317Z,10.64
2018-04-11T05:55:48.889Z,10.74
2018-04-11T05:56:49.463Z,10.71
2018-04-11T05:57:50.037Z,10.74
2018-04-11T05:58:50.650Z,10.76
2018-04-11T05:59:51.198Z,10.74
2018-04-11T06:00:51.817Z,11.04
2018-04-11T06:01:52.348Z,10.81
2018-04-11T06:02:52.923Z,10.89
2018-04-11T06:03:53.499Z,10.96
2018-04-11T06:04:54.073Z,10.89
2018-04-11T06:05:54.666Z,10.90
2018-04-11T06:06:55.221Z,11.04
2018-04-11T06:07:55.801Z,11.12
2018-04-11T06:08:56.374Z,10.94
2018-04-11T06:09:56.947Z,11.00
2018-04-11T06:10:57.520Z,10.94
2018-04-11T06:11:58.094Z,10.96
2018-04-11T06:12:58.678Z,10.94
2018-04-11T06:13:59.252Z,10.89
2018-04-11T06:14:59.827Z,11.02
2018-04-11T06:16:00.402Z,11.33
2018-04-11T06:17:00.999Z,11.44
2018-04-11T06:18:01.550Z,11.26
2018-04-11T06:19:02.123Z,11.25
2018-04-11T06:20:02.714Z,11.14
2018-04-11T06:21:03.273Z,11.44
2018-04-11T06:22:03.849Z,11.36
2018-04-11T06:23:04.483Z,11.26
2018-04-11T06:24:05.008Z,11.05
2018-04-11T06:25:05.583Z,10.97
2018-04-11T06:26:06.210Z,11.05
2018-04-11T06:27:06.733Z,11.25
2018-04-11T06:28:07.310Z,11.44
2018-04-11T06:29:07.881Z,11.14
2018-04-11T06:30:08.455Z,11.19
2018-04-11T06:31:09.031Z,11.41
2018-04-11T06:32:09.605Z,11.23
2018-04-11T06:33:10.181Z,11.45
2018-04-11T06:34:10.755Z,11.77
2018-04-11T06:35:11.330Z,11.91
2018-04-11T06:36:11.906Z,11.66
2018-04-11T06:37:12.491Z,11.70
2018-04-11T06:38:13.068Z,11.75
2018-04-11T06:39:13.669Z,12.07
2018-04-11T06:40:14.215Z,12.43
2018-04-11T06:41:14.791Z,12.13
2018-04-11T06:42:15.366Z,11.59
2018-04-11T06:43:15.944Z,11.54
2018-04-11T06:44:16.515Z,11.54
2018-04-11T06:45:17.092Z,11.70
2018-04-11T06:46:17.666Z,11.65
2018-04-11T06:47:18.266Z,11.90
2018-04-11T06:48:18.815Z,12.18
2018-04-11T06:49:19.392Z,12.27
2018-04-11T06:50:19.968Z,12.49
2018-04-11T06:51:20.551Z,12.47
2018-04-11T06:52:21.127Z,12.45
2018-04-11T06:53:21.712Z,12.32
2018-04-11T06:54:22.289Z,12.36
2018-04-11T06:55:22.866Z,12.28
2018-04-11T06:56:23.448Z,12.55
2018-04-11T06:57:24.023Z,12.65
2018-04-11T06:58:24.598Z,12.78
2018-04-11T06:59:25.171Z,12.72
2018-04-11T07:00:25.747Z,12.70
2018-04-11T07:01:26.323Z,12.68
2018-04-11T07:02:26.899Z,12.79
2018-04-11T07:03:27.474Z,12.53
2018-04-11T07:04:28.049Z,12.55
2018-04-11T07:05:28.633Z,12.36
2018-04-11T07:06:29.210Z,12.54
2018-04-11T07:07:29.793Z,12.58
2018-04-11T07:08:30.367Z,12.78
2018-04-11T07:09:30.952Z,13.03
2018-04-11T07:10:31.527Z,13.04
2018-04-11T07:11:32.101Z,12.94
2018-04-11T07:12:32.682Z,12.85
2018-04-11T07:13:33.262Z,13.09
2018-04-11T07:14:33.837Z,13.03
2018-04-11T07:15:34.414Z,12.97
2018-04-11T07:16:34.988Z,13.16
2018-04-11T07:17:35.575Z,13.38
2018-04-11T07:18:36.150Z,13.53
2018-04-11T07:19:36.729Z,13.59
2018-04-11T07:20:37.301Z,13.57
2018-04-11T07:21:37.879Z,13.56
2018-04-11T07:22:38.455Z,13.57
2018-04-11T07:23:39.029Z,13.12
2018-04-11T07:24:39.621Z,13.09
2018-04-11T07:25:40.191Z,13.20
2018-04-11T07:26:40.765Z,13.38
2018-04-11T07:27:41.342Z,13.63
2018-04-11T07:28:41.916Z,13.85
2018-04-11T07:29:42.491Z,13.63
2018-04-11T07:30:43.065Z,13.95
2018-04-11T07:31:43.641Z,14.07
2018-04-11T07:32:44.221Z,13.85
2018-04-11T07:33:44.827Z,13.63
2018-04-11T07:34:45.367Z,13.59
2018-04-11T07:35:45.942Z,13.70
2018-04-11T07:36:46.530Z,13.96
2018-04-11T07:37:47.118Z,13.99
2018-04-11T07:38:47.695Z,13.79
2018-04-11T07:39:48.270Z,13.89
2018-04-11T07:40:48.846Z,14.23
2018-04-11T07:41:49.421Z,14.54
2018-04-11T07:42:50.000Z,14.36
2018-04-11T07:43:50.571Z,14.10
2018-04-11T07:44:51.158Z,13.97
2018-04-11T07:45:51.733Z,14.23
2018-04-11T07:46:52.310Z,14.33
2018-04-11T07:47:52.884Z,14.36
2018-04-11T07:48:53.472Z,14.59
2018-04-11T07:49:54.054Z,14.48
2018-04-11T07:50:54.633Z,14.45
2018-04-11T07:51:55.209Z,14.35
2018-04-11T07:52:55.785Z,14.63
2018-04-11T07:53:56.363Z,14.55
2018-04-11T07:54:56.939Z,14.51
2018-04-11T07:55:57.515Z,14.44
2018-04-11T07:56:58.092Z,14.72
2018-04-11T07:57:58.668Z,14.88
2018-04-11T07:58:59.244Z,14.78
2018-04-11T07:59:59.823Z,14.88
2018-04-11T08:01:00.409Z,14.92
2018-04-11T08:02:00.982Z,14.97
2018-04-11T08:03:01.560Z,14.66
2018-04-11T08:04:02.137Z,14.66
2018-04-11T08:05:02.712Z,14.96
2018-04-11T08:06:03.288Z,15.00
2018-04-11T08:07:03.864Z,15.07
2018-04-11T08:08:04.441Z,15.03
2018-04-11T08:09:05.017Z,15.06
2018-04-11T08:10:05.645Z,15.43
2018-04-11T08:11:06.169Z,15.47
2018-04-11T08:12:06.749Z,15.40
2018-04-11T08:13:07.324Z,15.39
2018-04-11T08:14:07.898Z,15.44
2018-04-11T08:15:08.476Z,15.54
2018-04-11T08:16:09.056Z,15.65
2018-04-11T08:17:09.630Z,15.65
2018-04-11T08:18:10.263Z,15.77
2018-04-11T08:19:10.797Z,15.49
2018-04-11T08:20:11.384Z,15.14
2018-04-11T08:21:11.963Z,15.22
2018-04-11T08:22:12.550Z,15.61
2018-04-11T08:23:13.182Z,15.37
2018-04-11T08:24:13.717Z,15.59
2018-04-11T08:25:14.336Z,16.02
2018-04-11T08:26:14.914Z,15.76
2018-04-11T08:27:15.489Z,15.57
2018-04-11T08:28:16.077Z,15.49
2018-04-11T08:29:16.654Z,15.88
2018-04-11T08:30:17.237Z,15.61
2018-04-11T08:31:17.813Z,15.94
2018-04-11T08:32:18.390Z,15.75
2018-04-11T08:33:18.977Z,15.72
2018-04-11T08:34:19.564Z,15.70
2018-04-11T08:35:20.129Z,15.65
2018-04-11T08:36:20.706Z,15.80
2018-04-11T08:37:21.283Z,16.02
2018-04-11T08:38:21.863Z,15.67
2018-04-11T08:39:22.436Z,15.79
2018-04-11T08:40:23.012Z,15.90
2018-04-11T08:41:23.589Z,15.90
2018-04-11T08:42:24.166Z,15.94
2018-04-11T08:43:24.752Z,15.82
2018-04-11T08:44:25.334Z,16.08
2018-04-11T08:45:25.928Z,16.17
2018-04-11T08:46:26.496Z,15.84
2018-04-11T08:47:27.075Z,16.09
2018-04-11T08:48:27.652Z,16.28
2018-04-11T08:49:28.231Z,16.17
2018-04-11T08:50:28.807Z,16.00
2018-04-11T08:51:29.384Z,16.61
2018-04-11T08:52:29.998Z,16.54
2018-04-11T08:53:30.537Z,16.51
2018-04-11T08:54:31.116Z,16.41
2018-04-11T08:55:31.695Z,16.71
2018-04-11T08:56:32.273Z,16.76
2018-04-11T08:57:32.850Z,16.68
2018-04-11T08:58:33.428Z,16.81
2018-04-11T08:59:34.016Z,16.89
2018-04-11T09:00:34.597Z,16.90
2018-04-11T09:01:35.180Z,16.74
2018-04-11T09:02:35.763Z,16.60
2018-04-11T09:03:36.335Z,16.56
2018-04-11T09:04:36.914Z,16.68
2018-04-11T09:05:37.491Z,16.41
2018-04-11T09:06:38.069Z,16.74
2018-04-11T09:07:38.647Z,16.83
2018-04-11T09:08:39.234Z,16.54
2018-04-11T09:09:39.814Z,16.86
2018-04-11T09:10:40.402Z,17.11
2018-04-11T09:11:40.983Z,16.97
2018-04-11T09:12:41.559Z,16.81
2018-04-11T09:13:42.137Z,17.01
2018-04-11T09:14:42.715Z,17.22
2018-04-11T09:15:43.292Z,17.06
2018-04-11T09:16:43.870Z,16.76
2018-04-11T09:17:44.447Z,17.22
2018-04-11T09:18:45.024Z,16.96
2018-04-11T09:19:45.601Z,17.24
2018-04-11T09:20:46.182Z,17.15
2018-04-11T09:21:46.758Z,17.20
2018-04-11T09:22:47.334Z,17.23
2018-04-11T09:23:47.923Z,17.31
2018-04-11T09:24:48.511Z,17.70
2018-04-11T09:25:49.089Z,17.67
2018-04-11T09:26:49.667Z,17.89
2018-04-11T09:27:50.245Z,17.46
2018-04-11T09:28:50.832Z,17.42
2018-04-11T09:29:51.421Z,17.26
2018-04-11T09:30:51.999Z,17.60
2018-04-11T09:31:52.633Z,17.83
2018-04-11T09:32:53.158Z,17.87
2018-04-11T09:33:53.736Z,18.08
2018-04-11T09:34:54.324Z,18.28
2018-04-11T09:35:54.902Z,18.55
2018-04-11T09:36:55.480Z,18.52
2018-04-11T09:37:56.059Z,18.23
2018-04-11T09:38:56.636Z,18.44
2018-04-11T09:39:57.220Z,18.40
2018-04-11T09:40:57.796Z,18.78
2018-04-11T09:41:58.411Z,19.21
2018-04-11T09:42:58.966Z,19.08
2018-04-11T09:43:59.540Z,19.41
2018-04-11T09:45:00.117Z,19.69
2018-04-11T09:46:00.697Z,19.40
2018-04-11T09:47:01.281Z,19.59
2018-04-11T09:48:01.866Z,19.86
2018-04-11T09:49:02.445Z,19.88
2018-04-11T09:50:03.026Z,19.62
2018-04-11T09:51:03.605Z,19.51
2018-04-11T09:52:04.182Z,19.52
2018-04-11T09:53:04.762Z,18.71
2018-04-11T09:54:05.341Z,18.60
2018-04-11T09:55:05.920Z,19.19
2018-04-11T09:56:06.510Z,19.24
2018-04-11T09:57:07.088Z,19.33
2018-04-11T09:58:07.665Z,19.48
2018-04-11T09:59:08.244Z,19.58
2018-04-11T10:00:08.823Z,19.67
2018-04-11T10:01:09.405Z,18.63
2018-04-11T10:02:09.984Z,18.43
2018-04-11T10:03:10.560Z,18.07
2018-04-11T10:04:11.150Z,18.03
2018-04-11T10:05:11.730Z,18.01
2018-04-11T10:06:12.318Z,18.18
2018-04-11T10:07:12.898Z,18.10
2018-04-11T10:08:13.477Z,18.45
2018-04-11T10:09:14.057Z,18.15
2018-04-11T10:10:14.636Z,18.29
2018-04-11T10:11:15.215Z,18.68
2018-04-11T10:12:15.794Z,18.63
2018-04-11T10:13:16.375Z,18.22
2018-04-11T10:14:16.954Z,17.90
2018-04-11T10:15:17.535Z,17.92
2018-04-11T10:16:18.113Z,18.13
2018-04-11T10:17:18.694Z,18.01
2018-04-11T10:18:19.275Z,17.83
2018-04-11T10:19:19.864Z,18.20
2018-04-11T10:20:20.440Z,18.38
2018-04-11T10:21:21.019Z,18.74
2018-04-11T10:22:21.599Z,18.68
2018-04-11T10:23:22.178Z,18.59
2018-04-11T10:24:22.767Z,18.92
2018-04-11T10:25:23.347Z,19.22
2018-04-11T10:26:23.925Z,19.48
2018-04-11T10:27:24.506Z,19.67
2018-04-11T10:28:25.084Z,19.82
2018-04-11T10:29:25.663Z,19.15
2018-04-11T10:30:26.251Z,19.40
2018-04-11T10:31:26.821Z,19.19
2018-04-11T10:32:27.399Z,18.86
2018-04-11T10:33:27.977Z,19.08
2018-04-11T10:34:28.556Z,19.02
2018-04-11T10:35:29.144Z,19.37
2018-04-11T10:36:29.724Z,19.49
2018-04-11T10:37:30.304Z,19.64
2018-04-11T10:38:30.884Z,19.49
2018-04-11T10:39:31.461Z,19.19
2018-04-11T10:40:32.041Z,18.78
2018-04-11T10:41:32.618Z,19.31
2018-04-11T10:42:33.197Z,19.12
2018-04-11T10:43:33.779Z,18.83
2018-04-11T10:44:34.357Z,19.07
2018-04-11T10:45:34.936Z,19.58
2018-04-11T10:46:35.516Z,19.30
2018-04-11T10:47:36.095Z,19.27
2018-04-11T10:48:36.675Z,19.49
2018-04-11T10:49:37.253Z,19.47
2018-04-11T10:50:37.833Z,19.52
2018-04-11T10:51:38.423Z,19.22
2018-04-11T10:52:39.002Z,19.30
2018-04-11T10:53:39.582Z,19.12
2018-04-11T10:54:40.171Z,19.49
2018-04-11T10:55:40.750Z,19.67
2018-04-11T10:56:41.329Z,19.96
2018-04-11T10:57:41.908Z,19.82
2018-04-11T10:58:42.486Z,19.58
2018-04-11T10:59:43.064Z,19.66
2018-04-11T11:00:43.646Z,19.37
2018-04-11T11:01:44.223Z,19.73
2018-04-11T11:02:44.805Z,20.06
2018-04-11T11:03:45.383Z,19.89
2018-04-11T11:04:45.963Z,19.58
2018-04-11T11:05:46.544Z,19.69
2018-04-11T11:06:47.130Z,19.40
2018-04-11T11:07:47.717Z,19.73
2018-04-11T11:08:48.307Z,19.77
2018-04-11T11:09:48.894Z,19.58
2018-04-11T11:10:49.476Z,19.40
2018-04-11T11:11:50.055Z,19.56
2018-04-11T11:12:50.634Z,19.89
2018-04-11T11:13:51.225Z,19.92
2018-04-11T11:14:51.802Z,20.10
2018-04-11T11:15:52.387Z,20.06
2018-04-11T11:16:52.961Z,20.10
2018-04-11T11:17:53.544Z,20.18
2018-04-11T11:18:54.124Z,20.19
2018-04-11T11:19:54.716Z,20.26
2018-04-11T11:20:55.292Z,20.22
2018-04-11T11:21:55.871Z,20.10
2018-04-11T11:22:56.450Z,20.06
2018-04-11T11:23:57.042Z,20.47
2018-04-11T11:24:57.626Z,20.62
2018-04-11T11:25:58.204Z,20.75
2018-04-11T11:26:58.786Z,20.78
2018-04-11T11:27:59.367Z,20.44
2018-04-11T11:28:59.949Z,20.10
2018-04-11T11:30:00.527Z,19.79
2018-04-11T11:31:01.109Z,20.10
2018-04-11T11:32:01.688Z,19.85
2018-04-11T11:33:02.266Z,19.51
2018-04-11T11:34:02.849Z,19.56
2018-04-11T11:35:03.432Z,19.92
2018-04-11T11:36:04.010Z,19.91
2018-04-11T11:37:04.602Z,19.79
2018-04-11T11:38:05.180Z,20.16
2018-04-11T11:39:05.772Z,19.52
2018-04-11T11:40:06.350Z,19.40
2018-04-11T11:41:06.933Z,19.44
2018-04-11T11:42:07.509Z,19.45
2018-04-11T11:43:08.089Z,19.59
2018-04-11T11:44:08.669Z,19.59
2018-04-11T11:45:09.250Z,19.67
2018-04-11T11:46:09.841Z,19.96
2018-04-11T11:47:10.425Z,20.10
2018-04-11T11:48:11.001Z,19.99
2018-04-11T11:49:11.581Z,20.06
2018-04-11T11:50:12.160Z,19.94
2018-04-11T11:51:12.738Z,19.74
2018-04-11T11:52:13.319Z,19.51
2018-04-11T11:53:13.900Z,19.73
2018-04-11T11:54:14.480Z,19.40
2018-04-11T11:55:15.060Z,19.76
2018-04-11T11:56:15.637Z,19.66
2018-04-11T11:57:16.221Z,19.92
2018-04-11T11:58:16.810Z,20.26
2018-04-11T11:59:17.399Z,20.41
2018-04-11T12:00:17.977Z,20.04
2018-04-11T12:01:18.557Z,19.91
2018-04-11T12:02:19.167Z,20.04
2018-04-11T12:03:19.717Z,20.11
2018-04-11T12:04:20.296Z,20.26
2018-04-11T12:05:20.875Z,20.00
2018-04-11T12:06:21.456Z,20.03
2018-04-11T12:07:22.033Z,20.37
2018-04-11T12:08:22.616Z,20.31
2018-04-11T12:09:23.206Z,20.06
2018-04-11T12:10:23.786Z,19.89
2018-04-11T12:11:24.363Z,19.91
2018-04-11T12:12:24.943Z,19.58
2018-04-11T12:13:25.523Z,19.82
2018-04-11T12:14:26.106Z,19.88
2018-04-11T12:15:26.681Z,19.91
2018-04-11T12:16:27.263Z,19.89
2018-04-11T12:17:27.850Z,19.56
2018-04-11T12:18:28.431Z,19.36
2018-04-11T12:19:29.069Z,19.00
2018-04-11T12:20:29.593Z,19.14
2018-04-11T12:21:30.170Z,18.99
2018-04-11T12:22:30.751Z,18.83
2018-04-11T12:23:31.331Z,19.39
2018-04-11T12:24:31.911Z,19.21
2018-04-11T12:25:32.493Z,18.84
2018-04-11T12:26:33.071Z,18.78
2018-04-11T12:27:33.651Z,19.15
2018-04-11T12:28:34.231Z,18.98
2018-04-11T12:29:34.865Z,19.07
2018-04-11T12:30:35.399Z,19.04
2018-04-11T12:31:35.979Z,18.80
2018-04-11T12:32:36.558Z,18.73
2018-04-11T12:33:37.137Z,18.62
2018-04-11T12:34:37.717Z,18.74
2018-04-11T12:35:38.296Z,18.75
2018-04-11T12:36:38.875Z,18.80
2018-04-11T12:37:39.453Z,19.04
2018-04-11T12:38:40.034Z,19.07
2018-04-11T12:39:40.624Z,19.16
2018-04-11T12:40:41.212Z,19.30
2018-04-11T12:41:41.791Z,18.89
2018-04-11T12:42:42.368Z,18.90
2018-04-11T12:43:42.952Z,18.92
2018-04-11T12:44:43.537Z,18.80
2018-04-11T12:45:44.116Z,18.99
2018-04-11T12:46:44.695Z,19.15
2018-04-11T12:47:45.276Z,18.66
2018-04-11T12:48:45.853Z,18.26
2018-04-11T12:49:46.430Z,18.13
2018-04-11T12:50:47.009Z,18.31
2018-04-11T12:51:47.590Z,18.34
2018-04-11T12:52:48.170Z,18.53
2018-04-11T12:53:48.749Z,18.59
2018-04-11T12:54:49.329Z,18.01
2018-04-11T12:55:49.906Z,18.28
2018-04-11T12:56:50.485Z,18.16
2018-04-11T12:57:51.063Z,18.00
2018-04-11T12:58:51.639Z,18.03
2018-04-11T12:59:52.220Z,18.10